CSN6731 ZJSY-ZGGG
Flight info
| Callsign | CSN6731 |
|---|---|
| Flight time | 1h 5m |
| Altitude | 24600 |
| Route | PORAP1N PORAP W222 NUMKU W223 AGTEL W71 LH DCT GYA GYA7 |
| Aircraft | A320/M-SDE3FGHIRWY/LB1 |
Departure
| Time | 2026-05-06 14:23 |
|---|---|
| Airport | Sanya Phoenix International Airport (ZJSY) |
Arrival
| Time | 2026-05-06 15:29 |
|---|---|
| Airport | Guangzhou Baiyun International Airport (ZGGG) |
| Time | Latitude | Longitude | Altitude | Speed | Heading |
|---|---|---|---|---|---|
| 2026-05-06 14:13 | 18.30741 | 109.40340 | 78 ft | 0 kts | 352° |
| 2026-05-06 14:16 | 18.30738 | 109.40341 | 78 ft | 3 kts | 351° |
| 2026-05-06 14:16 | 18.30712 | 109.40348 | 76 ft | 4 kts | 334° |
| 2026-05-06 14:17 | 18.30691 | 109.40363 | 68 ft | 4 kts | 309° |
| 2026-05-06 14:17 | 18.30679 | 109.40387 | 75 ft | 4 kts | 275° |
| 2026-05-06 14:17 | 18.30678 | 109.40399 | 81 ft | 0 kts | 262° |
| 2026-05-06 14:19 | 18.30678 | 109.40397 | 82 ft | 1 kts | 262° |
| 2026-05-06 14:19 | 18.30676 | 109.40377 | 67 ft | 4 kts | 262° |
| 2026-05-06 14:19 | 18.30670 | 109.40335 | 75 ft | 7 kts | 262° |
| 2026-05-06 14:20 | 18.30662 | 109.40272 | 75 ft | 10 kts | 262° |
| 2026-05-06 14:20 | 18.30623 | 109.40230 | 75 ft | 9 kts | 183° |
| 2026-05-06 14:20 | 18.30556 | 109.40238 | 77 ft | 11 kts | 172° |
| 2026-05-06 14:20 | 18.30472 | 109.40250 | 74 ft | 13 kts | 172° |
| 2026-05-06 14:21 | 18.30403 | 109.40198 | 77 ft | 15 kts | 257° |
| 2026-05-06 14:21 | 18.30383 | 109.40078 | 76 ft | 18 kts | 264° |
| 2026-05-06 14:21 | 18.30369 | 109.39936 | 75 ft | 21 kts | 263° |
| 2026-05-06 14:21 | 18.30294 | 109.39809 | 74 ft | 21 kts | 220° |
| 2026-05-06 14:22 | 18.30255 | 109.39659 | 65 ft | 22 kts | 244° |
| 2026-05-06 14:22 | 18.30121 | 109.39640 | 65 ft | 20 kts | 178° |
| 2026-05-06 14:22 | 18.30091 | 109.39676 | 74 ft | 3 kts | 82° |
| 2026-05-06 14:22 | 18.30093 | 109.39707 | 74 ft | 6 kts | 85° |
| 2026-05-06 14:23 | 18.30131 | 109.39945 | 69 ft | 69 kts | 82° |
| 2026-05-06 14:23 | 18.30217 | 109.40669 | 81 ft | 127 kts | 82° |
| 2026-05-06 14:23 | 18.30362 | 109.41751 | 160 ft | 165 kts | 83° |
| 2026-05-06 14:23 | 18.30515 | 109.42972 | 693 ft | 169 kts | 83° |
| 2026-05-06 14:24 | 18.30678 | 109.44187 | 1268 ft | 167 kts | 85° |
| 2026-05-06 14:24 | 18.30851 | 109.45453 | 1625 ft | 185 kts | 83° |
| 2026-05-06 14:24 | 18.31046 | 109.46876 | 1897 ft | 208 kts | 83° |
| 2026-05-06 14:24 | 18.31259 | 109.48442 | 2243 ft | 227 kts | 83° |
| 2026-05-06 14:25 | 18.31485 | 109.50110 | 2872 ft | 236 kts | 83° |
| 2026-05-06 14:25 | 18.31975 | 109.51768 | 3673 ft | 244 kts | 57° |
| 2026-05-06 14:25 | 18.33238 | 109.52985 | 4459 ft | 251 kts | 34° |
| 2026-05-06 14:25 | 18.34792 | 109.53860 | 5277 ft | 256 kts | 25° |
| 2026-05-06 14:26 | 18.36424 | 109.54632 | 6104 ft | 259 kts | 24° |
| 2026-05-06 14:26 | 18.38081 | 109.55411 | 6875 ft | 262 kts | 25° |
| 2026-05-06 14:26 | 18.39747 | 109.56234 | 7636 ft | 267 kts | 26° |
| 2026-05-06 14:26 | 18.41420 | 109.57107 | 8389 ft | 270 kts | 27° |
| 2026-05-06 14:27 | 18.43082 | 109.58013 | 9126 ft | 274 kts | 27° |
| 2026-05-06 14:27 | 18.44776 | 109.58961 | 9880 ft | 278 kts | 27° |
| 2026-05-06 14:27 | 18.46486 | 109.59932 | 10558 ft | 281 kts | 27° |
| 2026-05-06 14:27 | 18.48211 | 109.60923 | 11238 ft | 284 kts | 27° |
| 2026-05-06 14:28 | 18.49970 | 109.61904 | 11806 ft | 293 kts | 25° |
| 2026-05-06 14:28 | 18.51884 | 109.62863 | 11997 ft | 316 kts | 23° |
| 2026-05-06 14:28 | 18.53959 | 109.63843 | 12125 ft | 338 kts | 22° |
| 2026-05-06 14:28 | 18.56175 | 109.64871 | 12255 ft | 358 kts | 22° |
| 2026-05-06 14:29 | 18.58517 | 109.65960 | 12381 ft | 377 kts | 22° |
| 2026-05-06 14:29 | 18.60971 | 109.67111 | 12518 ft | 394 kts | 23° |
| 2026-05-06 14:29 | 18.63486 | 109.68306 | 12640 ft | 410 kts | 23° |
| 2026-05-06 14:29 | 18.66123 | 109.69570 | 12854 ft | 422 kts | 23° |
| 2026-05-06 14:30 | 18.68813 | 109.70865 | 13318 ft | 427 kts | 23° |
| 2026-05-06 14:30 | 18.71525 | 109.72170 | 13823 ft | 431 kts | 23° |
| 2026-05-06 14:30 | 18.74264 | 109.73485 | 14274 ft | 434 kts | 23° |
| 2026-05-06 14:30 | 18.77022 | 109.74809 | 14736 ft | 437 kts | 23° |
| 2026-05-06 14:31 | 18.79796 | 109.76141 | 15185 ft | 439 kts | 23° |
| 2026-05-06 14:31 | 18.82585 | 109.77483 | 15607 ft | 442 kts | 23° |
| 2026-05-06 14:31 | 18.85391 | 109.78833 | 16039 ft | 444 kts | 23° |
| 2026-05-06 14:31 | 18.88174 | 109.80171 | 16444 ft | 447 kts | 23° |
| 2026-05-06 14:32 | 18.91018 | 109.81537 | 16829 ft | 450 kts | 23° |
| 2026-05-06 14:32 | 18.93876 | 109.82908 | 17217 ft | 453 kts | 22° |
| 2026-05-06 14:32 | 18.96752 | 109.84290 | 17610 ft | 455 kts | 23° |
| 2026-05-06 14:32 | 18.99642 | 109.85680 | 17986 ft | 458 kts | 23° |
| 2026-05-06 14:33 | 19.02546 | 109.87078 | 18344 ft | 460 kts | 23° |
| 2026-05-06 14:33 | 19.05464 | 109.88483 | 18677 ft | 461 kts | 23° |
| 2026-05-06 14:33 | 19.08350 | 109.89871 | 18997 ft | 463 kts | 23° |
| 2026-05-06 14:33 | 19.11290 | 109.91287 | 19300 ft | 465 kts | 23° |
| 2026-05-06 14:34 | 19.14240 | 109.92714 | 19594 ft | 467 kts | 23° |
| 2026-05-06 14:34 | 19.17202 | 109.94149 | 19893 ft | 469 kts | 23° |
| 2026-05-06 14:34 | 19.20179 | 109.95589 | 20186 ft | 471 kts | 23° |
| 2026-05-06 14:34 | 19.23166 | 109.97031 | 20462 ft | 473 kts | 23° |
| 2026-05-06 14:35 | 19.26169 | 109.98476 | 20737 ft | 475 kts | 22° |
| 2026-05-06 14:35 | 19.29193 | 109.99900 | 20994 ft | 477 kts | 22° |
| 2026-05-06 14:35 | 19.32195 | 110.01287 | 21238 ft | 478 kts | 22° |
| 2026-05-06 14:35 | 19.35247 | 110.02706 | 21470 ft | 480 kts | 22° |
| 2026-05-06 14:36 | 19.38302 | 110.04153 | 21688 ft | 482 kts | 22° |
| 2026-05-06 14:36 | 19.41359 | 110.05624 | 21904 ft | 484 kts | 23° |
| 2026-05-06 14:36 | 19.44421 | 110.07113 | 22111 ft | 485 kts | 23° |
| 2026-05-06 14:36 | 19.47490 | 110.08611 | 22299 ft | 486 kts | 23° |
| 2026-05-06 14:37 | 19.50567 | 110.10110 | 22463 ft | 488 kts | 23° |
| 2026-05-06 14:37 | 19.53654 | 110.11609 | 22639 ft | 489 kts | 23° |
| 2026-05-06 14:37 | 19.56753 | 110.13111 | 22809 ft | 490 kts | 22° |
| 2026-05-06 14:37 | 19.59865 | 110.14615 | 22970 ft | 492 kts | 22° |
| 2026-05-06 14:38 | 19.62942 | 110.16101 | 23135 ft | 493 kts | 22° |
| 2026-05-06 14:38 | 19.66070 | 110.17611 | 23299 ft | 495 kts | 22° |
| 2026-05-06 14:38 | 19.69205 | 110.19127 | 23450 ft | 496 kts | 22° |
| 2026-05-06 14:38 | 19.72349 | 110.20648 | 23573 ft | 497 kts | 22° |
| 2026-05-06 14:39 | 19.75495 | 110.22172 | 23692 ft | 498 kts | 22° |
| 2026-05-06 14:39 | 19.78649 | 110.23702 | 23804 ft | 499 kts | 23° |
| 2026-05-06 14:39 | 19.81804 | 110.25238 | 23899 ft | 499 kts | 23° |
| 2026-05-06 14:39 | 19.84922 | 110.26755 | 24016 ft | 500 kts | 23° |
| 2026-05-06 14:40 | 19.88086 | 110.28292 | 24117 ft | 500 kts | 22° |
| 2026-05-06 14:40 | 19.91253 | 110.29827 | 24229 ft | 501 kts | 22° |
| 2026-05-06 14:40 | 19.94422 | 110.31367 | 24343 ft | 501 kts | 22° |
| 2026-05-06 14:40 | 19.97588 | 110.32910 | 24477 ft | 501 kts | 22° |
| 2026-05-06 14:41 | 20.00758 | 110.34456 | 24521 ft | 501 kts | 22° |
| 2026-05-06 14:41 | 20.03969 | 110.35884 | 24521 ft | 499 kts | 17° |
| 2026-05-06 14:41 | 20.07327 | 110.36786 | 24525 ft | 497 kts | 7° |
| 2026-05-06 14:41 | 20.10710 | 110.37110 | 24527 ft | 494 kts | 358° |
| 2026-05-06 14:42 | 20.14127 | 110.36879 | 24530 ft | 492 kts | 349° |
| 2026-05-06 14:42 | 20.17483 | 110.36204 | 24533 ft | 491 kts | 347° |
| 2026-05-06 14:42 | 20.20833 | 110.35493 | 24539 ft | 491 kts | 347° |
| 2026-05-06 14:42 | 20.24182 | 110.34787 | 24542 ft | 491 kts | 347° |
| 2026-05-06 14:43 | 20.27533 | 110.34084 | 24545 ft | 491 kts | 347° |
| 2026-05-06 14:43 | 20.30885 | 110.33381 | 24546 ft | 491 kts | 347° |
| 2026-05-06 14:43 | 20.34231 | 110.32677 | 24542 ft | 490 kts | 347° |
| 2026-05-06 14:43 | 20.37577 | 110.31969 | 24539 ft | 490 kts | 347° |
| 2026-05-06 14:44 | 20.40875 | 110.31270 | 24537 ft | 490 kts | 347° |
| 2026-05-06 14:44 | 20.44218 | 110.30565 | 24537 ft | 490 kts | 347° |
| 2026-05-06 14:44 | 20.47563 | 110.29868 | 24534 ft | 490 kts | 348° |
| 2026-05-06 14:45 | 20.54390 | 110.29611 | 24532 ft | 494 kts | 1° |
| 2026-05-06 14:45 | 20.57820 | 110.29837 | 24539 ft | 494 kts | 1° |
| 2026-05-06 14:45 | 20.61255 | 110.30065 | 24536 ft | 494 kts | 1° |
| 2026-05-06 14:45 | 20.64684 | 110.30293 | 24533 ft | 494 kts | 1° |
| 2026-05-06 14:46 | 20.68069 | 110.30517 | 24529 ft | 494 kts | 1° |
| 2026-05-06 14:46 | 20.71500 | 110.30743 | 24532 ft | 494 kts | 1° |
| 2026-05-06 14:46 | 20.74933 | 110.30968 | 24527 ft | 494 kts | 1° |
| 2026-05-06 14:46 | 20.78364 | 110.31194 | 24528 ft | 494 kts | 1° |
| 2026-05-06 14:47 | 20.81793 | 110.31419 | 24533 ft | 494 kts | 1° |
| 2026-05-06 14:47 | 20.85227 | 110.31644 | 24532 ft | 494 kts | 1° |
| 2026-05-06 14:47 | 20.88657 | 110.31868 | 24531 ft | 494 kts | 1° |
| 2026-05-06 14:47 | 20.92090 | 110.32090 | 24532 ft | 494 kts | 1° |
| 2026-05-06 14:48 | 20.95474 | 110.32312 | 24532 ft | 494 kts | 1° |
| 2026-05-06 14:48 | 20.98906 | 110.32541 | 24531 ft | 494 kts | 1° |
| 2026-05-06 14:48 | 21.02338 | 110.32759 | 24532 ft | 494 kts | 1° |
| 2026-05-06 14:48 | 21.05771 | 110.32959 | 24529 ft | 494 kts | 1° |
| 2026-05-06 14:49 | 21.09178 | 110.33488 | 24529 ft | 497 kts | 11° |
| 2026-05-06 14:49 | 21.12480 | 110.34616 | 24528 ft | 500 kts | 21° |
| 2026-05-06 14:49 | 21.15566 | 110.36350 | 24530 ft | 503 kts | 31° |
| 2026-05-06 14:49 | 21.18341 | 110.38649 | 24533 ft | 506 kts | 41° |
| 2026-05-06 14:50 | 21.20791 | 110.41291 | 24530 ft | 507 kts | 44° |
| 2026-05-06 14:50 | 21.23261 | 110.43998 | 24528 ft | 507 kts | 44° |
| 2026-05-06 14:50 | 21.25732 | 110.46695 | 24527 ft | 508 kts | 44° |
| 2026-05-06 14:50 | 21.28211 | 110.49396 | 24532 ft | 508 kts | 44° |
| 2026-05-06 14:51 | 21.30686 | 110.52094 | 24533 ft | 508 kts | 44° |
| 2026-05-06 14:51 | 21.33166 | 110.54795 | 24533 ft | 508 kts | 44° |
| 2026-05-06 14:51 | 21.35642 | 110.57497 | 24532 ft | 508 kts | 44° |
| 2026-05-06 14:51 | 21.38114 | 110.60200 | 24532 ft | 508 kts | 44° |
| 2026-05-06 14:52 | 21.40589 | 110.62909 | 24536 ft | 508 kts | 44° |
| 2026-05-06 14:52 | 21.43027 | 110.65586 | 24536 ft | 508 kts | 44° |
| 2026-05-06 14:52 | 21.45494 | 110.68300 | 24546 ft | 508 kts | 44° |
| 2026-05-06 14:52 | 21.47966 | 110.71017 | 24541 ft | 509 kts | 44° |
| 2026-05-06 14:53 | 21.50440 | 110.73734 | 24537 ft | 509 kts | 44° |
| 2026-05-06 14:53 | 21.52916 | 110.76452 | 24539 ft | 509 kts | 44° |
| 2026-05-06 14:53 | 21.55389 | 110.79174 | 24538 ft | 509 kts | 44° |
| 2026-05-06 14:53 | 21.57865 | 110.81899 | 24536 ft | 509 kts | 44° |
| 2026-05-06 14:54 | 21.60341 | 110.84620 | 24537 ft | 509 kts | 44° |
| 2026-05-06 14:54 | 21.62785 | 110.87306 | 24540 ft | 509 kts | 44° |
| 2026-05-06 14:54 | 21.65256 | 110.90028 | 24320 ft | 509 kts | 44° |
| 2026-05-06 14:54 | 21.67731 | 110.92759 | 24101 ft | 509 kts | 44° |
| 2026-05-06 14:55 | 21.70200 | 110.95482 | 23883 ft | 508 kts | 44° |
| 2026-05-06 14:55 | 21.72668 | 110.98204 | 23675 ft | 507 kts | 44° |
| 2026-05-06 14:55 | 21.75132 | 111.00923 | 23453 ft | 507 kts | 44° |
| 2026-05-06 14:55 | 21.77587 | 111.03634 | 23193 ft | 505 kts | 44° |
| 2026-05-06 14:56 | 21.80033 | 111.06337 | 22934 ft | 503 kts | 44° |
| 2026-05-06 14:56 | 21.82469 | 111.09033 | 22678 ft | 501 kts | 44° |
| 2026-05-06 14:56 | 21.84892 | 111.11717 | 22427 ft | 499 kts | 44° |
| 2026-05-06 14:56 | 21.87306 | 111.14389 | 22179 ft | 497 kts | 44° |
| 2026-05-06 14:57 | 21.89679 | 111.17014 | 21927 ft | 495 kts | 44° |
| 2026-05-06 14:57 | 21.92074 | 111.19664 | 21699 ft | 493 kts | 44° |
| 2026-05-06 14:57 | 21.94455 | 111.22306 | 21456 ft | 490 kts | 44° |
| 2026-05-06 14:57 | 21.96823 | 111.24938 | 21212 ft | 489 kts | 44° |
| 2026-05-06 14:58 | 21.99185 | 111.27561 | 20983 ft | 487 kts | 44° |
| 2026-05-06 14:58 | 22.01540 | 111.30175 | 20745 ft | 485 kts | 44° |
| 2026-05-06 14:58 | 22.03887 | 111.32782 | 20506 ft | 484 kts | 44° |
| 2026-05-06 14:58 | 22.06225 | 111.35380 | 20268 ft | 482 kts | 44° |
| 2026-05-06 14:59 | 22.08520 | 111.37932 | 20044 ft | 480 kts | 44° |
| 2026-05-06 14:59 | 22.10840 | 111.40516 | 19809 ft | 478 kts | 44° |
| 2026-05-06 14:59 | 22.13147 | 111.43085 | 19583 ft | 476 kts | 44° |
| 2026-05-06 14:59 | 22.15447 | 111.45646 | 19355 ft | 474 kts | 44° |
| 2026-05-06 15:00 | 22.17735 | 111.48196 | 19129 ft | 472 kts | 44° |
| 2026-05-06 15:00 | 22.20017 | 111.50740 | 18901 ft | 470 kts | 44° |
| 2026-05-06 15:00 | 22.22290 | 111.53271 | 18680 ft | 468 kts | 44° |
| 2026-05-06 15:00 | 22.24553 | 111.55792 | 18457 ft | 467 kts | 44° |
| 2026-05-06 15:01 | 22.26804 | 111.58304 | 18235 ft | 465 kts | 44° |
| 2026-05-06 15:01 | 22.29019 | 111.60780 | 17985 ft | 464 kts | 44° |
| 2026-05-06 15:01 | 22.31254 | 111.63282 | 17730 ft | 462 kts | 44° |
| 2026-05-06 15:01 | 22.33482 | 111.65774 | 17478 ft | 460 kts | 44° |
| 2026-05-06 15:02 | 22.35704 | 111.68258 | 17226 ft | 459 kts | 44° |
| 2026-05-06 15:02 | 22.37918 | 111.70736 | 16972 ft | 457 kts | 44° |
| 2026-05-06 15:02 | 22.40122 | 111.73203 | 16730 ft | 456 kts | 44° |
| 2026-05-06 15:02 | 22.42322 | 111.75664 | 16487 ft | 454 kts | 44° |
| 2026-05-06 15:03 | 22.44513 | 111.78116 | 16243 ft | 452 kts | 44° |
| 2026-05-06 15:03 | 22.46663 | 111.80527 | 15999 ft | 451 kts | 44° |
| 2026-05-06 15:03 | 22.48835 | 111.82966 | 15761 ft | 450 kts | 44° |
| 2026-05-06 15:03 | 22.51007 | 111.85404 | 15523 ft | 448 kts | 44° |
| 2026-05-06 15:04 | 22.53166 | 111.87827 | 15298 ft | 447 kts | 44° |
| 2026-05-06 15:04 | 22.55321 | 111.90245 | 15067 ft | 445 kts | 44° |
| 2026-05-06 15:04 | 22.57466 | 111.92654 | 14828 ft | 444 kts | 44° |
| 2026-05-06 15:04 | 22.59603 | 111.95057 | 14606 ft | 442 kts | 44° |
| 2026-05-06 15:05 | 22.61723 | 111.97466 | 14366 ft | 441 kts | 47° |
| 2026-05-06 15:05 | 22.63435 | 112.00158 | 14149 ft | 442 kts | 62° |
| 2026-05-06 15:05 | 22.64456 | 112.03292 | 13924 ft | 443 kts | 76° |
| 2026-05-06 15:05 | 22.65152 | 112.06532 | 13689 ft | 441 kts | 76° |
| 2026-05-06 15:06 | 22.65835 | 112.09767 | 13441 ft | 440 kts | 77° |
| 2026-05-06 15:06 | 22.66508 | 112.12992 | 13186 ft | 439 kts | 77° |
| 2026-05-06 15:06 | 22.67180 | 112.16207 | 12932 ft | 437 kts | 77° |
| 2026-05-06 15:06 | 22.67852 | 112.19411 | 12681 ft | 435 kts | 77° |
| 2026-05-06 15:07 | 22.68521 | 112.22601 | 12442 ft | 434 kts | 77° |
| 2026-05-06 15:07 | 22.69189 | 112.25783 | 12193 ft | 432 kts | 77° |
| 2026-05-06 15:07 | 22.69841 | 112.28910 | 11955 ft | 431 kts | 77° |
| 2026-05-06 15:07 | 22.70499 | 112.32071 | 11713 ft | 430 kts | 77° |
| 2026-05-06 15:08 | 22.71154 | 112.35223 | 11480 ft | 428 kts | 77° |
| 2026-05-06 15:08 | 22.71807 | 112.38362 | 11239 ft | 427 kts | 77° |
| 2026-05-06 15:08 | 22.72461 | 112.41493 | 11003 ft | 426 kts | 77° |
| 2026-05-06 15:08 | 22.73115 | 112.44615 | 10770 ft | 424 kts | 77° |
| 2026-05-06 15:09 | 22.73767 | 112.47726 | 10539 ft | 423 kts | 77° |
| 2026-05-06 15:09 | 22.74415 | 112.50827 | 10308 ft | 421 kts | 77° |
| 2026-05-06 15:09 | 22.75059 | 112.53912 | 10079 ft | 420 kts | 77° |
| 2026-05-06 15:09 | 22.75688 | 112.56926 | 9885 ft | 407 kts | 78° |
| 2026-05-06 15:10 | 22.76294 | 112.59841 | 9754 ft | 386 kts | 78° |
| 2026-05-06 15:10 | 22.76868 | 112.62614 | 9623 ft | 368 kts | 78° |
| 2026-05-06 15:10 | 22.77416 | 112.65263 | 9496 ft | 353 kts | 78° |
| 2026-05-06 15:10 | 22.77942 | 112.67807 | 9371 ft | 339 kts | 78° |
| 2026-05-06 15:11 | 22.78449 | 112.70255 | 9247 ft | 327 kts | 78° |
| 2026-05-06 15:11 | 22.78937 | 112.72619 | 9117 ft | 316 kts | 78° |
| 2026-05-06 15:11 | 22.79410 | 112.74914 | 8992 ft | 309 kts | 78° |
| 2026-05-06 15:11 | 22.79878 | 112.77180 | 8865 ft | 307 kts | 78° |
| 2026-05-06 15:12 | 22.80337 | 112.79406 | 8742 ft | 306 kts | 78° |
| 2026-05-06 15:12 | 22.80800 | 112.81649 | 8619 ft | 304 kts | 78° |
| 2026-05-06 15:12 | 22.81260 | 112.83884 | 8497 ft | 303 kts | 78° |
| 2026-05-06 15:12 | 22.81718 | 112.86110 | 8370 ft | 302 kts | 78° |
| 2026-05-06 15:13 | 22.82171 | 112.88313 | 8247 ft | 299 kts | 78° |
| 2026-05-06 15:13 | 22.82624 | 112.90519 | 8128 ft | 300 kts | 78° |
| 2026-05-06 15:13 | 22.83076 | 112.92721 | 8006 ft | 299 kts | 78° |
| 2026-05-06 15:13 | 22.83524 | 112.94914 | 7902 ft | 297 kts | 78° |
| 2026-05-06 15:14 | 22.83965 | 112.97076 | 7907 ft | 298 kts | 78° |
| 2026-05-06 15:14 | 22.85270 | 113.03477 | 7915 ft | 298 kts | 78° |
| 2026-05-06 15:15 | 22.85718 | 113.05670 | 7918 ft | 298 kts | 78° |
| 2026-05-06 15:15 | 22.86168 | 113.07863 | 7915 ft | 298 kts | 78° |
| 2026-05-06 15:15 | 22.86617 | 113.10057 | 7914 ft | 298 kts | 78° |
| 2026-05-06 15:15 | 22.87087 | 113.12244 | 7865 ft | 297 kts | 73° |
| 2026-05-06 15:16 | 22.88009 | 113.14215 | 7669 ft | 291 kts | 53° |
| 2026-05-06 15:16 | 22.89435 | 113.15731 | 7486 ft | 284 kts | 38° |
| 2026-05-06 15:16 | 22.90807 | 113.17170 | 7361 ft | 275 kts | 57° |
| 2026-05-06 15:16 | 22.91488 | 113.19038 | 7246 ft | 263 kts | 82° |
| 2026-05-06 15:17 | 22.91721 | 113.20967 | 7128 ft | 253 kts | 86° |
| 2026-05-06 15:17 | 22.91887 | 113.22836 | 6997 ft | 245 kts | 86° |
| 2026-05-06 15:17 | 22.92037 | 113.24644 | 6845 ft | 238 kts | 86° |
| 2026-05-06 15:17 | 22.92186 | 113.26422 | 6600 ft | 236 kts | 86° |
| 2026-05-06 15:18 | 22.92334 | 113.28188 | 6355 ft | 234 kts | 86° |
| 2026-05-06 15:18 | 22.92482 | 113.29909 | 6228 ft | 225 kts | 86° |
| 2026-05-06 15:18 | 22.92626 | 113.31543 | 6102 ft | 216 kts | 86° |
| 2026-05-06 15:18 | 22.92769 | 113.33142 | 5924 ft | 210 kts | 86° |
| 2026-05-06 15:19 | 22.92912 | 113.34713 | 5688 ft | 208 kts | 86° |
| 2026-05-06 15:19 | 22.93066 | 113.36270 | 5433 ft | 207 kts | 81° |
| 2026-05-06 15:19 | 22.93694 | 113.37649 | 5169 ft | 207 kts | 44° |
| 2026-05-06 15:19 | 22.94919 | 113.38439 | 4881 ft | 207 kts | 21° |
| 2026-05-06 15:20 | 22.96280 | 113.38948 | 4599 ft | 207 kts | 17° |
| 2026-05-06 15:20 | 22.97654 | 113.39403 | 4338 ft | 206 kts | 17° |
| 2026-05-06 15:20 | 22.99029 | 113.39838 | 4081 ft | 205 kts | 12° |
| 2026-05-06 15:20 | 23.00394 | 113.39765 | 3932 ft | 201 kts | 337° |
| 2026-05-06 15:21 | 23.01650 | 113.39093 | 3905 ft | 202 kts | 328° |
| 2026-05-06 15:21 | 23.02860 | 113.38310 | 3904 ft | 203 kts | 327° |
| 2026-05-06 15:21 | 23.04065 | 113.37510 | 3906 ft | 203 kts | 326° |
| 2026-05-06 15:21 | 23.05268 | 113.36707 | 3906 ft | 203 kts | 326° |
| 2026-05-06 15:22 | 23.06470 | 113.35905 | 3906 ft | 203 kts | 326° |
| 2026-05-06 15:22 | 23.07673 | 113.35103 | 3894 ft | 202 kts | 326° |
| 2026-05-06 15:22 | 23.08865 | 113.34307 | 3653 ft | 201 kts | 326° |
| 2026-05-06 15:22 | 23.10061 | 113.33507 | 3381 ft | 202 kts | 326° |
| 2026-05-06 15:23 | 23.11236 | 113.32717 | 3122 ft | 201 kts | 326° |
| 2026-05-06 15:23 | 23.12423 | 113.31915 | 2944 ft | 201 kts | 326° |
| 2026-05-06 15:23 | 23.13612 | 113.31106 | 2902 ft | 202 kts | 326° |
| 2026-05-06 15:23 | 23.14802 | 113.30296 | 2908 ft | 202 kts | 326° |
| 2026-05-06 15:24 | 23.15994 | 113.29484 | 2907 ft | 202 kts | 326° |
| 2026-05-06 15:24 | 23.17188 | 113.28672 | 2906 ft | 203 kts | 326° |
| 2026-05-06 15:24 | 23.18383 | 113.27858 | 2905 ft | 203 kts | 327° |
| 2026-05-06 15:24 | 23.19586 | 113.27052 | 2903 ft | 203 kts | 333° |
| 2026-05-06 15:25 | 23.20918 | 113.26637 | 2909 ft | 204 kts | 357° |
| 2026-05-06 15:25 | 23.22327 | 113.26814 | 2847 ft | 207 kts | 14° |
| 2026-05-06 15:25 | 23.23729 | 113.27196 | 2622 ft | 208 kts | 15° |
| 2026-05-06 15:25 | 23.25130 | 113.27579 | 2387 ft | 206 kts | 15° |
| 2026-05-06 15:26 | 23.26479 | 113.27944 | 2107 ft | 193 kts | 15° |
| 2026-05-06 15:26 | 23.27698 | 113.28272 | 1867 ft | 169 kts | 15° |
| 2026-05-06 15:26 | 23.28796 | 113.28568 | 1654 ft | 158 kts | 16° |
| 2026-05-06 15:26 | 23.29841 | 113.28850 | 1453 ft | 153 kts | 15° |
| 2026-05-06 15:27 | 23.30861 | 113.29126 | 1254 ft | 149 kts | 15° |
| 2026-05-06 15:27 | 23.31849 | 113.29392 | 1068 ft | 147 kts | 15° |
| 2026-05-06 15:27 | 23.32832 | 113.29654 | 909 ft | 144 kts | 14° |
| 2026-05-06 15:27 | 23.33794 | 113.29917 | 734 ft | 141 kts | 14° |
| 2026-05-06 15:28 | 23.34736 | 113.30176 | 539 ft | 139 kts | 14° |
| 2026-05-06 15:28 | 23.35666 | 113.30425 | 326 ft | 137 kts | 14° |
| 2026-05-06 15:28 | 23.36586 | 113.30675 | 150 ft | 136 kts | 14° |
| 2026-05-06 15:28 | 23.37494 | 113.30906 | 59 ft | 124 kts | 13° |
| 2026-05-06 15:29 | 23.38067 | 113.31069 | 58 ft | 46 kts | 14° |
| 2026-05-06 15:29 | 23.38366 | 113.31150 | 54 ft | 44 kts | 14° |
| 2026-05-06 15:29 | 23.38653 | 113.31201 | 53 ft | 37 kts | 1° |
| 2026-05-06 15:29 | 23.38820 | 113.31163 | 54 ft | 0 kts | 345° |
| 2026-05-06 15:30 | 23.38831 | 113.31160 | 54 ft | 3 kts | 345° |
| 2026-05-06 15:30 | 23.38861 | 113.31151 | 54 ft | 6 kts | 345° |
| 2026-05-06 15:30 | 23.38911 | 113.31137 | 56 ft | 9 kts | 345° |
| 2026-05-06 15:30 | 23.38982 | 113.31123 | 53 ft | 12 kts | 356° |
| 2026-05-06 15:31 | 23.39075 | 113.31138 | 55 ft | 15 kts | 357° |
| 2026-05-06 15:31 | 23.39128 | 113.31046 | 55 ft | 17 kts | 284° |
| 2026-05-06 15:31 | 23.39159 | 113.30907 | 59 ft | 20 kts | 284° |
| 2026-05-06 15:32 | 23.39174 | 113.30841 | 57 ft | 0 kts | 284° |
| 2026-05-06 15:32 | 23.39175 | 113.30837 | 56 ft | 2 kts | 284° |
| 2026-05-06 15:32 | 23.39176 | 113.30834 | 55 ft | 1 kts | 284° |
| 2026-05-06 15:32 | 23.39177 | 113.30831 | 57 ft | 0 kts | 284° |
| 2026-05-06 15:33 | 23.39178 | 113.30825 | 55 ft | 2 kts | 284° |
| 2026-05-06 15:33 | 23.39181 | 113.30796 | 51 ft | 5 kts | 270° |
| 2026-05-06 15:33 | 23.39155 | 113.30761 | 55 ft | 8 kts | 203° |
| 2026-05-06 15:33 | 23.39095 | 113.30742 | 56 ft | 10 kts | 193° |
| 2026-05-06 15:34 | 23.39016 | 113.30723 | 54 ft | 13 kts | 193° |
| 2026-05-06 15:34 | 23.38943 | 113.30677 | 56 ft | 11 kts | 273° |
| 2026-05-06 15:34 | 23.38955 | 113.30581 | 56 ft | 14 kts | 283° |
| 2026-05-06 15:34 | 23.38979 | 113.30482 | 55 ft | 12 kts | 285° |
| 2026-05-06 15:35 | 23.38998 | 113.30401 | 55 ft | 11 kts | 283° |
| 2026-05-06 15:35 | 23.39024 | 113.30343 | 53 ft | 2 kts | 24° |
| 2026-05-06 15:35 | 23.39045 | 113.30347 | 56 ft | 5 kts | 10° |
| 2026-05-06 15:35 | 23.39079 | 113.30356 | 52 ft | 1 kts | 14° |